Time;durP1;ratioP1;P1;durP2;ratioP2;P2;SDS_P1;SDS_P2;PMS_P1;PMS_P2;Temp;Humidity;BMP_temperature;BMP_pressure;BME280_temperature;BME280_humidity;BME280_pressure;Samples;Min_cycle;Max_cycle;Signal;HPM_P1;HPM_P2
2023/01/28 00:01:26;;;;;;;6.00;2.95;;;;;;;-148.88;91.46;78329.25;5080720;28;20031;-83
2023/01/28 00:03:53;;;;;;;3.60;2.50;;;;;;;-148.88;91.70;78329.25;5083892;28;20452;-83
2023/01/28 00:06:19;;;;;;;3.97;2.42;;;;;;;-148.88;91.54;78327.22;5082459;28;20031;-83
2023/01/28 00:08:45;;;;;;;6.20;3.00;;;;;;;-148.88;92.34;78329.25;5080615;28;20107;-83
2023/01/28 00:11:12;;;;;;;5.05;3.13;;;;;;;-148.88;92.48;78331.28;5080445;28;20029;-83
2023/01/28 00:13:38;;;;;;;4.90;3.00;;;;;;;-148.88;92.51;78325.19;5076185;28;20379;-82
2023/01/28 00:16:07;;;;;;;3.55;2.45;;;;;;;-148.88;92.66;78323.16;5073762;28;20028;-83
2023/01/28 00:18:33;;;;;;;6.07;2.67;;;;;;;-148.88;92.85;78321.13;5072434;28;20024;-83
2023/01/28 00:21:00;;;;;;;6.20;3.53;;;;;;;-148.88;93.38;78329.25;5072519;28;20395;-83
2023/01/28 00:23:28;;;;;;;6.07;3.03;;;;;;;-148.88;93.67;78329.25;5072759;28;20031;-83
2023/01/28 00:25:53;;;;;;;4.85;2.95;;;;;;;-148.88;94.07;78321.13;5073768;28;20507;-83
2023/01/28 00:28:19;;;;;;;5.80;3.47;;;;;;;-148.88;94.64;78329.25;5078325;28;20024;-84
2023/01/28 00:30:45;;;;;;;5.63;3.00;;;;;;;-148.88;93.86;78341.44;5083685;28;20025;-83
2023/01/28 00:33:10;;;;;;;4.32;2.70;;;;;;;-148.88;93.97;78337.38;5083394;28;20039;-83
2023/01/28 00:35:35;;;;;;;5.68;2.92;;;;;;;-148.88;93.97;78339.41;5081597;28;20081;-83
2023/01/28 00:38:02;;;;;;;6.15;3.35;;;;;;;-148.88;94.07;78337.38;5074008;28;20046;-82
2023/01/28 00:40:27;;;;;;;5.40;3.13;;;;;;;-148.88;95.06;78337.38;5074482;28;20512;-83
2023/01/28 00:42:53;;;;;;;7.53;3.08;;;;;;;-148.88;94.81;78337.38;5074207;28;20119;-83
2023/01/28 00:45:19;;;;;;;6.32;3.53;;;;;;;-148.88;94.69;78327.22;5076858;28;20054;-83
2023/01/28 00:47:44;;;;;;;7.15;3.05;;;;;;;-148.88;94.16;78329.25;5078863;28;20506;-83
2023/01/28 00:50:10;;;;;;;7.13;3.38;;;;;;;-148.88;93.97;78327.22;5077622;28;20043;-83
2023/01/28 00:52:35;;;;;;;6.15;2.85;;;;;;;-148.88;93.58;78331.28;5071801;28;20027;-82
2023/01/28 00:55:00;;;;;;;4.00;2.50;;;;;;;-148.88;93.74;78333.31;5075799;28;20017;-84
2023/01/28 00:57:26;;;;;;;4.50;3.00;;;;;;;-148.88;93.46;78341.44;5084647;28;20029;-83
2023/01/28 00:59:51;;;;;;;4.78;2.75;;;;;;;-148.88;93.14;78341.44;5073543;28;20036;-83
2023/01/28 01:02:16;;;;;;;5.10;2.60;;;;;;;-148.88;93.94;78353.63;5074195;28;20100;-83
2023/01/28 01:04:53;;;;;;;4.85;2.70;;;;;;;-148.88;92.28;78347.53;5073656;28;20082;-83
2023/01/28 01:07:20;;;;;;;3.72;2.45;;;;;;;-148.88;91.14;78345.50;5072568;28;20028;-83
2023/01/28 01:09:45;;;;;;;5.68;2.83;;;;;;;-148.88;91.19;78345.50;5072721;28;20360;-83
2023/01/28 01:12:10;;;;;;;5.72;3.13;;;;;;;-148.88;90.59;78347.53;5072664;28;20581;-83
2023/01/28 01:14:35;;;;;;;3.28;2.50;;;;;;;-148.88;91.51;78351.59;5074097;28;20035;-83
2023/01/28 01:17:01;;;;;;;5.40;2.92;;;;;;;-148.88;92.14;78341.44;5072810;28;20548;-82
2023/01/28 01:19:27;;;;;;;4.53;2.90;;;;;;;-148.88;92.17;78337.38;5077327;28;20107;-83
2023/01/28 01:21:52;;;;;;;4.47;2.60;;;;;;;-148.88;91.60;78341.44;5081120;28;20059;-84
2023/01/28 01:26:51;;;;;;;5.63;3.15;;;;;;;-148.88;92.04;78357.69;5085493;28;20055;-83
2023/01/28 01:29:16;;;;;;;6.50;3.17;;;;;;;-148.88;92.78;78351.59;5087799;28;20024;-84
2023/01/28 01:31:42;;;;;;;4.53;2.65;;;;;;;-148.88;90.83;78361.75;5086414;28;20037;-84
2023/01/28 01:34:08;;;;;;;4.95;2.80;;;;;;;-148.88;90.67;78353.63;5078319;28;20021;-83
2023/01/28 01:36:33;;;;;;;5.72;2.95;;;;;;;-148.88;91.65;78353.63;5077459;28;20025;-83
2023/01/28 01:38:59;;;;;;;4.38;2.53;;;;;;;-148.88;92.14;78357.69;5077467;28;20051;-83
2023/01/28 01:41:33;;;;;;;5.70;3.03;;;;;;;-148.88;90.90;78353.63;5077286;22;20124;-84
2023/01/28 01:44:00;;;;;;;5.07;3.63;;;;;;;-148.88;89.89;78355.66;5062125;28;20033;-84
2023/01/28 01:46:40;;;;;;;4.38;2.78;;;;;;;-148.88;90.31;78351.59;5061535;28;20021;-87
2023/01/28 01:49:20;;;;;;;4.70;2.72;;;;;;;-148.88;89.95;78361.75;5061403;28;20088;-86
2023/01/28 01:51:49;;;;;;;6.60;3.08;;;;;;;-148.88;89.07;78369.91;5039897;28;20032;-86
2023/01/28 01:54:16;;;;;;;4.45;2.75;;;;;;;-148.88;87.61;78373.97;5040896;28;20025;-86
2023/01/28 01:56:45;;;;;;;4.45;3.00;;;;;;;-148.88;87.72;78378.03;5039007;28;20029;-85
2023/01/28 01:59:16;;;;;;;4.82;2.83;;;;;;;-148.88;88.72;78363.78;5039643;28;20028;-86
2023/01/28 02:01:44;;;;;;;5.82;2.47;;;;;;;-148.88;88.21;78369.91;5038275;28;20107;-86
2023/01/28 02:04:16;;;;;;;3.95;2.25;;;;;;;-148.88;90.43;78369.91;5038973;28;20022;-86
2023/01/28 02:06:41;;;;;;;4.43;2.42;;;;;;;-148.88;91.21;78365.81;5038748;28;20163;-86
2023/01/28 02:09:31;;;;;;;4.20;2.45;;;;;;;-148.88;92.77;78363.78;5039144;28;20037;-85
2023/01/28 02:12:12;;;;;;;5.07;2.78;;;;;;;-148.88;92.27;78384.13;5037025;28;20495;-86
2023/01/28 02:14:44;;;;;;;5.60;2.65;;;;;;;-148.88;92.14;78388.19;5036192;28;20037;-86
2023/01/28 02:17:10;;;;;;;4.05;2.47;;;;;;;-148.88;91.76;78382.09;5038255;28;20030;-86
2023/01/28 02:19:41;;;;;;;3.15;2.17;;;;;;;-148.88;93.02;78386.16;5037577;28;20033;-86
2023/01/28 02:22:27;;;;;;;4.95;2.67;;;;;;;-148.88;92.08;78386.16;5038759;28;20029;-87
2023/01/28 02:25:05;;;;;;;3.85;2.40;;;;;;;-148.88;91.83;78392.25;5038031;28;20021;-86
2023/01/28 02:27:47;;;;;;;5.68;2.80;;;;;;;-148.88;91.29;78384.13;5037729;28;20025;-86
2023/01/28 02:30:22;;;;;;;6.57;2.85;;;;;;;-148.88;90.78;78388.19;5037822;28;20017;-85
2023/01/28 02:33:02;;;;;;;4.18;2.60;;;;;;;-148.88;90.14;78384.13;5038145;28;20025;-86
2023/01/28 02:35:36;;;;;;;6.38;2.38;;;;;;;-148.88;90.70;78380.06;5037663;28;20030;-86
2023/01/28 02:38:10;;;;;;;;;;;;;;;-148.88;90.97;78363.78;5039481;28;20049;-86
2023/01/28 02:41:01;;;;;;;7.33;2.93;;;;;;;-148.88;91.63;78369.91;5038005;28;19912;-84
2023/01/28 02:43:43;;;;;;;6.13;3.13;;;;;;;-148.88;91.97;78382.09;5038791;28;20021;-86
2023/01/28 02:49:07;;;;;;;4.95;2.65;;;;;;;-148.88;89.28;78382.09;5037201;28;20454;-86
2023/01/28 02:52:13;;;;;;;4.28;3.03;;;;;;;-148.88;90.21;78382.09;5036867;28;20028;-86
2023/01/28 02:55:04;;;;;;;4.78;2.58;;;;;;;-148.88;91.05;78373.97;5030444;28;20079;-85
2023/01/28 02:57:51;;;;;;;6.55;3.30;;;;;;;-148.88;90.74;78380.06;5037670;28;20033;-87
2023/01/28 03:00:45;;;;;;;7.70;3.17;;;;;;;-148.88;89.75;78382.09;5039377;28;20037;-85
2023/01/28 03:03:19;;;;;;;6.07;3.05;;;;;;;-148.88;90.46;78396.31;5033299;28;20037;-87
2023/01/28 03:06:05;;;;;;;4.50;2.65;;;;;;;-148.88;90.75;78402.41;5039632;28;20052;-85
2023/01/28 03:39:09;;;;;;;;;;;;;;;-148.88;94.36;78382.09;5040214;28;20036;-86
2023/01/28 03:41:34;;;;;;;7.93;3.47;;;;;;;-148.88;94.53;78378.03;5037986;28;19913;-86
2023/01/28 03:46:44;;;;;;;;;;;;;;;-148.88;97.03;78414.59;5038865;28;20037;-86
2023/01/28 03:49:09;;;;;;;5.63;3.30;;;;;;;-148.88;98.70;78418.69;5037861;28;19909;-86
2023/01/28 03:51:34;;;;;;;8.52;3.92;;;;;;;-148.88;96.42;78426.81;5033920;28;20396;-87
2023/01/28 03:53:59;;;;;;;6.45;3.60;;;;;;;-148.88;96.38;78416.63;5034717;28;20037;-86
2023/01/28 03:56:27;;;;;;;5.82;3.50;;;;;;;-148.88;97.15;78420.72;5033793;28;20037;-86
2023/01/28 03:58:55;;;;;;;7.57;3.45;;;;;;;-148.88;97.22;78410.53;5035404;28;20025;-85
2023/01/28 04:01:20;;;;;;;8.07;3.08;;;;;;;-148.88;96.91;78412.56;5034578;28;20029;-86
2023/01/28 04:03:46;;;;;;;6.22;3.53;;;;;;;-148.88;98.82;78430.88;5035225;28;20400;-86
2023/01/28 04:06:11;;;;;;;7.57;4.43;;;;;;;-148.88;100.00;78436.97;5034196;28;20029;-86
2023/01/28 04:08:36;;;;;;;6.50;4.10;;;;;;;-148.88;99.31;78449.16;5034653;28;20026;-86
2023/01/28 04:11:19;;;;;;;6.15;3.53;;;;;;;-148.88;98.03;78443.06;5035989;28;20491;-85
2023/01/28 04:13:45;;;;;;;9.98;4.45;;;;;;;-148.88;98.36;78453.22;5036007;28;20407;-85
2023/01/28 04:16:15;;;;;;;8.05;4.05;;;;;;;-148.88;100.00;78463.38;5035106;28;20021;-86
2023/01/28 04:18:41;;;;;;;8.43;4.38;;;;;;;-148.88;99.96;78475.59;5034906;28;20087;-86
2023/01/28 04:21:06;;;;;;;8.38;4.18;;;;;;;-148.88;100.00;78467.47;5035253;28;20032;-85
2023/01/28 04:23:32;;;;;;;6.82;3.60;;;;;;;-148.88;99.47;78467.47;5034831;28;20108;-87
2023/01/28 04:25:57;;;;;;;6.30;4.28;;;;;;;-148.88;96.32;78471.53;5033421;28;20022;-86
2023/01/28 04:28:23;;;;;;;10.73;5.03;;;;;;;-148.88;97.59;78473.56;5033247;28;20026;-86
2023/01/28 04:37:31;;;;;;;8.57;4.00;;;;;;;-148.88;97.22;78477.63;5035758;28;20036;-87
2023/01/28 04:39:57;;;;;;;7.85;4.50;;;;;;;-148.88;98.32;78483.72;5035052;28;20037;-86
2023/01/28 04:42:22;;;;;;;7.10;3.90;;;;;;;-148.88;97.23;78483.72;5034709;28;20472;-87
2023/01/28 04:44:47;;;;;;;6.03;3.83;;;;;;;-148.88;97.29;78479.66;5034395;28;20090;-86
2023/01/28 04:47:13;;;;;;;8.18;3.92;;;;;;;-148.88;98.95;78475.59;5034903;28;20037;-86
2023/01/28 04:49:38;;;;;;;5.63;3.30;;;;;;;-148.88;96.43;78485.75;5035000;28;20110;-85
2023/01/28 04:52:03;;;;;;;6.95;3.65;;;;;;;-148.88;98.05;78483.72;5035020;28;20033;-87
2023/01/28 04:54:29;;;;;;;5.00;3.42;;;;;;;-148.88;97.51;78491.84;5033992;28;20025;-86
2023/01/28 04:56:55;;;;;;;7.15;3.45;;;;;;;-148.88;96.57;78483.72;5034842;28;20056;-86
2023/01/28 04:59:22;;;;;;;7.18;3.55;;;;;;;-148.88;95.92;78471.53;5033882;28;20029;-86
2023/01/28 05:01:48;;;;;;;5.90;3.08;;;;;;;-148.88;95.86;78467.47;5034873;28;20112;-87
2023/01/28 05:04:13;;;;;;;9.05;3.97;;;;;;;-148.88;94.61;78485.75;5032804;28;20480;-86
2023/01/28 05:06:38;;;;;;;5.60;3.78;;;;;;;-148.88;94.91;78479.66;5034020;28;20029;-86
2023/01/28 05:09:04;;;;;;;5.85;3.50;;;;;;;-148.88;95.43;78463.38;5034166;28;20048;-86
2023/01/28 05:11:29;;;;;;;5.03;3.05;;;;;;;-148.88;94.84;78467.47;5032550;28;20021;-86
2023/01/28 05:13:54;;;;;;;9.88;3.90;;;;;;;-148.88;96.33;78475.59;5032733;28;20048;-85
2023/01/28 05:16:20;;;;;;;8.75;4.13;;;;;;;-148.88;96.18;78479.66;5033264;28;20034;-86
2023/01/28 05:18:46;;;;;;;10.05;3.30;;;;;;;-148.88;96.85;78473.56;5032437;28;20025;-86
2023/01/28 05:21:12;;;;;;;6.18;3.38;;;;;;;-148.88;97.29;78467.47;5034219;28;20049;-86
2023/01/28 05:23:37;;;;;;;5.20;3.13;;;;;;;-148.88;97.18;78471.53;5032472;28;20038;-86
2023/01/28 05:26:03;;;;;;;5.80;3.55;;;;;;;-148.88;96.62;78479.66;5032341;28;20035;-86
2023/01/28 05:28:28;;;;;;;7.88;3.35;;;;;;;-148.88;97.56;78487.78;5033181;28;20029;-86
2023/01/28 05:30:53;;;;;;;8.32;4.15;;;;;;;-148.88;98.41;78499.97;5032707;28;20064;-86
2023/01/28 05:33:18;;;;;;;7.45;4.30;;;;;;;-148.88;99.02;78504.03;5033516;28;20026;-86
2023/01/28 05:35:44;;;;;;;7.82;4.00;;;;;;;-148.88;98.17;78510.13;5032879;28;20441;-87
2023/01/28 05:38:09;;;;;;;6.30;4.03;;;;;;;-148.88;95.89;78512.19;5032307;28;20034;-86
2023/01/28 05:40:34;;;;;;;6.60;3.88;;;;;;;-148.88;97.21;78497.94;5032218;28;20040;-86
2023/01/28 05:43:00;;;;;;;6.80;3.63;;;;;;;-148.88;97.15;78491.84;5032129;28;20515;-87
2023/01/28 05:45:25;;;;;;;6.03;3.42;;;;;;;-148.88;91.50;78495.91;5033687;28;20021;-86
2023/01/28 05:47:50;;;;;;;5.88;3.60;;;;;;;-148.88;93.64;78504.03;5032702;28;20026;-87
2023/01/28 05:50:16;;;;;;;6.78;3.67;;;;;;;-148.88;93.80;78508.09;5032230;28;20053;-86
2023/01/28 05:52:41;;;;;;;7.40;3.67;;;;;;;-148.88;94.25;78508.09;5032759;28;20026;-87
2023/01/28 05:55:07;;;;;;;6.80;3.83;;;;;;;-148.88;92.95;78508.09;5032876;28;20116;-85
2023/01/28 05:57:32;;;;;;;6.50;3.63;;;;;;;-148.88;92.75;78508.09;5032711;28;20404;-86
2023/01/28 05:59:58;;;;;;;5.82;3.55;;;;;;;-148.88;93.72;78502.00;5032378;28;20034;-86
2023/01/28 06:02:23;;;;;;;4.72;3.00;;;;;;;-148.88;93.84;78495.91;5032506;28;20029;-86
2023/01/28 06:04:48;;;;;;;6.55;3.13;;;;;;;-148.88;94.65;78485.75;5032442;28;20033;-86
2023/01/28 06:07:18;;;;;;;6.38;3.60;;;;;;;-148.88;94.74;78487.78;5032865;28;20060;-86
2023/01/28 06:09:43;;;;;;;6.47;3.33;;;;;;;-148.88;97.40;78489.81;5055716;28;20073;-85
2023/01/28 06:12:08;;;;;;;7.40;3.80;;;;;;;-148.88;96.38;78497.94;5054876;28;20076;-85
2023/01/28 06:14:34;;;;;;;5.97;4.00;;;;;;;-148.88;95.28;78499.97;5036893;28;20025;-87
2023/01/28 06:16:59;;;;;;;5.45;3.55;;;;;;;-148.88;96.10;78518.28;5036977;28;20051;-86
2023/01/28 06:19:24;;;;;;;8.73;4.40;;;;;;;-148.88;94.99;78532.50;5037741;28;20419;-87
2023/01/28 06:21:49;;;;;;;11.85;4.45;;;;;;;-148.88;94.99;78526.41;5036532;28;20037;-86
2023/01/28 06:24:15;;;;;;;7.57;3.90;;;;;;;-148.88;92.70;78532.50;5037673;28;20100;-86
2023/01/28 06:26:40;;;;;;;8.82;3.72;;;;;;;-148.88;94.09;78528.44;5036070;28;20475;-86
2023/01/28 06:29:05;;;;;;;7.78;4.32;;;;;;;-148.88;96.68;78524.38;5037490;28;20040;-87
2023/01/28 06:31:31;;;;;;;7.25;3.72;;;;;;;-148.88;96.05;78522.34;5035552;28;20166;-87
2023/01/28 06:33:56;;;;;;;6.32;3.33;;;;;;;-148.88;93.00;78518.28;5037138;28;20040;-87
2023/01/28 06:36:21;;;;;;;6.43;4.03;;;;;;;-148.88;91.23;78516.25;5036663;28;20029;-86
2023/01/28 06:38:46;;;;;;;8.88;4.00;;;;;;;-148.88;91.79;78512.19;5038533;28;20104;-85
2023/01/28 06:41:12;;;;;;;8.75;3.80;;;;;;;-148.88;93.33;78516.25;5038291;28;20040;-86
2023/01/28 06:43:37;;;;;;;7.53;4.38;;;;;;;-148.88;91.77;78516.25;5036497;28;20171;-86
2023/01/28 06:46:02;;;;;;;7.53;3.90;;;;;;;-148.88;90.73;78512.19;5037055;28;20029;-85
2023/01/28 06:48:28;;;;;;;6.53;4.00;;;;;;;-148.88;90.49;78512.19;5037815;28;20071;-85
2023/01/28 06:50:53;;;;;;;7.95;3.95;;;;;;;-148.88;90.58;78504.03;5041218;28;20021;-86
2023/01/28 06:53:19;;;;;;;7.13;4.13;;;;;;;-148.88;90.18;78510.13;5036289;28;20048;-86
2023/01/28 06:55:45;;;;;;;6.88;3.85;;;;;;;-148.88;90.46;78512.19;5036475;28;20025;-85
2023/01/28 06:58:11;;;;;;;7.05;3.80;;;;;;;-148.88;91.24;78518.28;5038034;28;20025;-87
2023/01/28 07:00:36;;;;;;;5.70;3.63;;;;;;;-148.88;92.68;78524.38;5037519;28;20036;-86
2023/01/28 07:03:02;;;;;;;9.95;4.22;;;;;;;-148.88;92.38;78526.41;5036433;28;20040;-87
2023/01/28 07:05:28;;;;;;;6.05;3.45;;;;;;;-148.88;91.87;78544.69;5037631;28;20025;-86
2023/01/28 07:07:53;;;;;;;6.35;3.60;;;;;;;-148.88;93.02;78540.63;5038431;28;20048;-87
2023/01/28 07:10:18;;;;;;;8.43;4.38;;;;;;;-148.88;93.33;78550.78;5038097;28;20029;-87
2023/01/28 07:12:44;;;;;;;8.18;4.68;;;;;;;-148.88;92.93;78548.75;5039409;28;20025;-87
2023/01/28 07:15:09;;;;;;;7.45;4.22;;;;;;;-148.88;93.55;78558.94;5038491;28;20025;-87
2023/01/28 07:17:38;;;;;;;6.80;3.90;;;;;;;-148.88;93.80;78548.75;5035705;28;20021;-86
2023/01/28 07:20:04;;;;;;;8.43;4.50;;;;;;;-148.88;92.85;78540.63;5036390;28;20120;-85
2023/01/28 07:22:29;;;;;;;9.05;4.38;;;;;;;-148.88;92.75;78548.75;5034738;28;20021;-86
2023/01/28 07:24:55;;;;;;;7.30;4.05;;;;;;;-148.88;93.78;78552.81;5035504;28;20502;-86
2023/01/28 07:27:20;;;;;;;7.07;4.13;;;;;;;-148.88;94.08;78538.59;5037147;28;20083;-85
2023/01/28 07:29:45;;;;;;;10.00;4.28;;;;;;;-148.88;93.51;78548.75;5036782;28;20029;-86
2023/01/28 07:32:11;;;;;;;7.82;4.13;;;;;;;-148.88;94.68;78556.88;5035517;28;20057;-85
2023/01/28 07:34:38;;;;;;;7.78;4.50;;;;;;;-148.88;96.81;78542.66;5035626;28;20079;-87
2023/01/28 07:37:05;;;;;;;10.23;4.72;;;;;;;-148.88;96.96;78548.75;5034807;28;20021;-87
2023/01/28 07:39:30;;;;;;;8.40;4.22;;;;;;;-148.88;96.15;78540.63;5034748;28;20079;-86
2023/01/28 07:41:56;;;;;;;5.95;3.00;;;;;;;-148.88;91.35;78540.63;5034409;28;20025;-86
2023/01/28 07:44:21;;;;;;;7.13;3.65;;;;;;;-148.88;90.46;78528.44;5035899;28;20057;-87
2023/01/28 07:46:46;;;;;;;9.45;4.75;;;;;;;-148.88;91.80;78528.44;5034707;28;20075;-87
2023/01/28 07:49:12;;;;;;;7.07;3.90;;;;;;;-148.88;91.66;78524.38;5035850;28;20080;-86
2023/01/28 07:51:37;;;;;;;7.63;4.75;;;;;;;-148.88;91.56;78540.63;5037338;28;20026;-86
2023/01/28 07:54:03;;;;;;;8.48;4.28;;;;;;;-148.88;92.44;78542.66;5037201;28;20484;-88
2023/01/28 07:56:30;;;;;;;10.73;5.03;;;;;;;-148.88;93.49;78540.63;5035568;28;20036;-86
2023/01/28 07:58:55;;;;;;;8.30;4.18;;;;;;;-148.88;90.97;78544.69;5034576;28;20026;-86
2023/01/28 08:01:20;;;;;;;8.10;4.22;;;;;;;-148.88;91.49;78548.75;5038014;28;20476;-86
2023/01/28 08:03:46;;;;;;;7.18;3.80;;;;;;;-148.88;91.49;78552.81;5039665;28;20052;-83
2023/01/28 08:06:13;;;;;;;7.97;4.47;;;;;;;-148.88;92.90;78548.75;5037869;28;20082;-86
2023/01/28 08:08:38;;;;;;;6.97;4.10;;;;;;;-148.88;90.65;78552.81;5034373;28;20108;-86
2023/01/28 08:11:10;;;;;;;7.05;3.95;;;;;;;-148.88;87.35;78548.75;5033256;28;20068;-87
2023/01/28 08:13:36;;;;;;;5.95;3.40;;;;;;;-148.88;87.82;78536.56;5033487;28;20053;-87
2023/01/28 08:16:01;;;;;;;7.18;4.03;;;;;;;-148.88;88.25;78538.59;5033170;28;20549;-86
2023/01/28 08:18:29;;;;;;;7.43;4.70;;;;;;;-148.88;88.20;78540.63;5033238;28;20495;-86
2023/01/28 08:20:55;;;;;;;7.72;4.15;;;;;;;-148.88;88.46;78540.63;5034409;28;20021;-86
2023/01/28 08:23:20;;;;;;;9.20;4.40;;;;;;;-148.88;88.14;78538.59;5033159;28;20021;-86
2023/01/28 08:25:47;;;;;;;8.88;4.65;;;;;;;-148.88;88.14;78538.59;5033230;28;20024;-85
2023/01/28 08:28:15;;;;;;;6.82;4.25;;;;;;;-148.88;87.98;78548.75;5035504;28;20025;-86
2023/01/28 08:30:40;;;;;;;6.80;3.90;;;;;;;-148.88;89.09;78552.81;5032719;28;20037;-85
2023/01/28 08:33:07;;;;;;;7.63;4.50;;;;;;;-148.88;88.99;78560.97;5032855;28;20021;-86
2023/01/28 08:35:34;;;;;;;10.32;4.72;;;;;;;-148.88;89.58;78573.16;5033178;28;20041;-86
2023/01/28 08:38:00;;;;;;;10.65;4.28;;;;;;;-148.88;90.23;78569.09;5032756;28;20444;-86
2023/01/28 08:40:26;;;;;;;10.15;5.32;;;;;;;-148.88;90.73;78569.09;5034327;28;20164;-85
2023/01/28 08:42:53;;;;;;;8.43;4.55;;;;;;;-148.88;88.86;78560.97;5033573;28;20076;-86
2023/01/28 08:45:24;;;;;;;9.57;4.32;;;;;;;-148.88;88.21;78569.09;5032878;28;20022;-86
2023/01/28 08:48:00;;;;;;;9.60;4.55;;;;;;;-148.88;89.78;78587.38;5032923;28;20411;-86
2023/01/28 08:50:28;;;;;;;9.25;4.60;;;;;;;-148.88;91.49;78595.50;5032636;28;20502;-86
2023/01/28 08:52:59;;;;;;;9.95;5.32;;;;;;;-148.88;88.75;78611.78;5033891;28;20032;-85
2023/01/28 08:55:26;;;;;;;7.35;4.85;;;;;;;-148.88;89.95;78613.81;5034570;28;20061;-86
2023/01/28 08:57:52;;;;;;;8.80;4.32;;;;;;;-148.88;88.89;78615.84;5034393;28;20032;-86
2023/01/28 09:00:18;;;;;;;10.18;4.90;;;;;;;-148.88;88.59;78615.84;5034235;28;20547;-86
2023/01/28 09:02:43;;;;;;;7.85;4.15;;;;;;;-148.88;89.33;78605.69;5032448;28;20029;-86
2023/01/28 09:05:09;;;;;;;8.95;4.20;;;;;;;-148.88;88.62;78607.72;5032773;28;20408;-85
2023/01/28 09:07:36;;;;;;;7.70;4.28;;;;;;;-148.88;89.66;78609.75;5033929;28;20017;-86
2023/01/28 09:10:03;;;;;;;9.70;4.47;;;;;;;-148.88;89.20;78621.94;5034025;28;20083;-86
2023/01/28 09:12:28;;;;;;;9.32;3.72;;;;;;;-148.88;87.59;78615.84;5033921;28;20037;-86
2023/01/28 09:14:53;;;;;;;7.03;4.03;;;;;;;-148.88;87.39;78607.72;5032975;28;20032;-85
2023/01/28 09:17:20;;;;;;;7.93;4.28;;;;;;;-148.88;86.52;78603.63;5034021;28;20051;-86
2023/01/28 09:19:45;;;;;;;8.35;4.57;;;;;;;-148.88;87.43;78599.56;5032804;28;20025;-85
2023/01/28 09:22:10;;;;;;;7.90;3.63;;;;;;;-148.88;86.82;78603.63;5034654;28;20383;-86
2023/01/28 09:24:36;;;;;;;7.88;4.38;;;;;;;-148.88;87.80;78613.81;5032735;28;20025;-88
2023/01/28 09:27:01;;;;;;;7.40;4.03;;;;;;;-148.88;87.48;78617.88;5032520;28;20087;-85
2023/01/28 09:29:26;;;;;;;9.82;4.95;;;;;;;-148.88;87.87;78617.88;5034731;28;20085;-86
2023/01/28 09:31:52;;;;;;;7.20;4.65;;;;;;;-148.88;88.67;78628.03;5033247;28;20148;-87
2023/01/28 09:34:17;;;;;;;6.53;4.07;;;;;;;-148.88;86.05;78646.31;5033535;28;20064;-86
2023/01/28 09:36:43;;;;;;;8.30;4.30;;;;;;;-148.88;88.37;78634.13;5032247;28;20032;-86
2023/01/28 09:39:09;;;;;;;9.32;4.47;;;;;;;-148.88;88.33;78632.09;5032564;28;20045;-84
2023/01/28 09:42:00;;;;;;;10.82;4.40;;;;;;;-148.88;86.19;78646.31;5032340;28;20081;-85
2023/01/28 09:44:58;;;;;;;7.35;3.85;;;;;;;-148.88;86.86;78654.47;5032210;28;20392;-84
2023/01/28 09:47:34;;;;;;;6.05;3.88;;;;;;;-148.88;86.93;78650.38;5035552;28;20029;-87
2023/01/28 09:50:05;;;;;;;8.48;4.15;;;;;;;-148.88;87.69;78646.31;5036567;28;20087;-86
2023/01/28 09:52:35;;;;;;;6.47;3.80;;;;;;;-148.88;85.41;78654.47;5037619;28;20025;-86
2023/01/28 09:55:31;;;;;;;6.00;3.67;;;;;;;-148.88;85.54;78656.50;5035732;28;20117;-87
2023/01/28 09:57:56;;;;;;;5.60;3.58;;;;;;;-148.88;85.05;78636.16;5037935;28;20111;-86
2023/01/28 10:00:29;;;;;;;6.57;3.85;;;;;;;-148.88;85.76;78615.84;5038549;28;20021;-85
2023/01/28 10:03:23;;;;;;;8.20;4.60;;;;;;;-148.88;85.70;78621.94;5036614;28;20029;-86
2023/01/28 10:06:17;;;;;;;8.23;4.55;;;;;;;-148.88;83.62;78615.84;5037166;28;20033;-85
2023/01/28 10:09:05;;;;;;;7.63;4.32;;;;;;;-148.88;85.08;78583.31;5035623;28;20121;-86
2023/01/28 10:11:59;;;;;;;7.25;3.92;;;;;;;-148.88;83.14;78589.41;5035841;28;20060;-86
2023/01/28 10:14:34;;;;;;;;;;;;;;;-148.88;83.58;78567.06;5035916;28;20025;-85
2023/01/28 10:17:17;;;;;;;;;;;;;;;-148.88;82.73;78573.16;5037325;28;19919;-85
2023/01/28 10:19:49;;;;;;;7.00;4.50;;;;;;;-148.88;85.69;78577.22;5035285;28;19909;-85
2023/01/28 10:22:25;;;;;;;7.05;4.45;;;;;;;-148.88;86.35;78589.41;5035212;28;20030;-86
2023/01/28 10:25:00;;;;;;;8.65;4.93;;;;;;;-148.88;87.84;78589.41;5035495;28;20104;-86
2023/01/28 10:27:29;;;;;;;9.15;5.25;;;;;;;-148.88;87.63;78597.53;5035513;28;20027;-86
2023/01/28 10:29:57;;;;;;;7.78;4.32;;;;;;;-148.88;87.62;78595.50;5036760;28;20026;-86
2023/01/28 10:32:29;;;;;;;7.35;4.30;;;;;;;-148.88;86.97;78589.41;5036609;28;20024;-86
2023/01/28 10:35:00;;;;;;;7.47;4.53;;;;;;;-148.88;85.82;78589.41;5034754;28;20022;-86
2023/01/28 10:37:27;;;;;;;7.68;4.80;;;;;;;-148.88;88.07;78593.47;5035752;28;20025;-85
2023/01/28 10:39:58;;;;;;;8.93;4.97;;;;;;;-148.88;87.58;78607.72;5036742;28;20488;-86
2023/01/28 10:42:29;;;;;;;8.88;5.15;;;;;;;-148.88;86.90;78609.75;5036712;28;20030;-87
2023/01/28 10:45:00;;;;;;;16.15;6.50;;;;;;;-148.88;89.96;78617.88;5037037;28;20053;-85
2023/01/28 10:47:32;;;;;;;9.68;5.43;;;;;;;-148.88;90.89;78599.56;5036066;28;20025;-85
2023/01/28 10:50:00;;;;;;;9.60;5.53;;;;;;;-148.88;89.17;78601.59;5035976;28;20112;-85
2023/01/28 10:52:25;;;;;;;12.02;5.78;;;;;;;-148.88;91.82;78585.34;5036532;28;20021;-86
2023/01/28 10:55:01;;;;;;;8.80;5.18;;;;;;;-148.88;89.99;78581.28;5036277;28;20492;-85
2023/01/28 10:57:27;;;;;;;9.50;5.05;;;;;;;-148.88;90.41;78577.22;5038933;28;20036;-86
2023/01/28 10:59:53;;;;;;;8.50;5.03;;;;;;;-148.88;91.14;78589.41;5037347;28;20017;-85
2023/01/28 11:02:35;;;;;;;12.18;6.13;;;;;;;-148.88;90.85;78589.41;5038533;28;20029;-86
2023/01/28 11:05:16;;;;;;;10.70;5.57;;;;;;;-148.88;90.86;78593.47;5037088;28;20116;-85
2023/01/28 11:07:41;;;;;;;9.77;5.32;;;;;;;-148.88;90.36;78617.88;5036355;28;20496;-86
2023/01/28 11:10:32;;;;;;;8.07;5.40;;;;;;;-148.88;89.93;78615.84;5036148;28;20033;-85
2023/01/28 11:13:03;;;;;;;11.10;6.28;;;;;;;-148.88;88.27;78575.19;5035976;28;20040;-86
2023/01/28 11:15:29;;;;;;;10.65;5.72;;;;;;;-148.88;86.22;78534.53;5037331;28;20025;-87
2023/01/28 11:18:01;;;;;;;10.93;5.30;;;;;;;-148.88;83.56;78504.03;5035562;28;20021;-86
2023/01/28 11:20:30;;;;;;;9.35;5.05;;;;;;;-148.88;84.27;78432.91;5035061;28;20044;-87
2023/01/28 11:22:57;;;;;;;11.43;6.28;;;;;;;-148.88;82.18;78373.97;5035767;28;20104;-86
2023/01/28 11:25:32;;;;;;;10.45;5.65;;;;;;;-148.88;79.66;78386.16;5039158;28;20018;-85
2023/01/28 11:28:00;;;;;;;13.85;5.97;;;;;;;-148.88;79.83;78390.22;5036396;28;20079;-85
2023/01/28 11:30:33;;;;;;;12.05;5.60;;;;;;;-148.88;78.57;78402.41;5036996;28;20049;-85
2023/01/28 11:33:22;;;;;;;11.60;6.30;;;;;;;-148.88;77.60;78378.03;5037589;28;20032;-87
2023/01/28 11:35:56;;;;;;;14.30;6.70;;;;;;;-148.88;75.75;78351.59;5036871;28;20032;-86
2023/01/28 11:38:24;;;;;;;10.90;6.40;;;;;;;-148.88;76.87;78418.69;5036425;28;20029;-85
2023/01/28 11:41:00;;;;;;;10.35;5.97;;;;;;;-148.88;78.13;78384.13;5035258;28;20057;-85
2023/01/28 11:43:27;;;;;;;13.43;6.05;;;;;;;-148.88;79.35;78388.19;5036258;28;20021;-85
2023/01/28 11:46:18;;;;;;;12.23;6.07;;;;;;;-148.88;79.82;78378.03;5038506;28;20037;-87
2023/01/28 11:48:50;;;;;;;10.82;6.05;;;;;;;-148.88;79.94;78343.47;5038803;28;20025;-87
2023/01/28 11:51:53;;;;;;;11.75;6.60;;;;;;;-148.88;78.10;78341.44;5039309;28;20391;-84
2023/01/28 11:54:30;;;;;;;11.77;5.80;;;;;;;-148.88;77.77;78315.00;5051428;28;20029;-84
2023/01/28 11:57:14;;;;;;;9.73;5.75;;;;;;;-148.88;76.07;78329.25;5051648;28;20025;-86
2023/01/28 12:00:17;;;;;;;10.52;5.93;;;;;;;-148.88;76.34;78333.31;5050691;28;20021;-84
2023/01/28 12:03:04;;;;;;;12.05;6.25;;;;;;;-148.88;77.30;78325.19;5046841;28;20033;-86
2023/01/28 12:05:47;;;;;;;10.52;5.97;;;;;;;-148.88;78.02;78310.94;5046659;28;20044;-86
2023/01/28 12:08:24;;;;;;;11.70;6.30;;;;;;;-148.88;76.95;78288.59;5045625;28;20047;-85
2023/01/28 12:11:06;;;;;;;12.50;6.75;;;;;;;-148.88;77.15;78268.28;5039224;28;20022;-87
2023/01/28 12:14:00;;;;;;;12.15;6.38;;;;;;;-148.88;77.19;78272.34;5039169;28;20025;-85